createdAt,value
2017-04-27T00:01:15.854Z,22.65
2017-04-27T00:02:15.534Z,22.68
2017-04-27T00:03:15.469Z,22.65
2017-04-27T00:04:15.098Z,22.72
2017-04-27T00:05:15.342Z,22.7
2017-04-27T00:06:15.284Z,22.6
2017-04-27T00:07:15.218Z,22.6
2017-04-27T00:08:14.842Z,22.62
2017-04-27T00:09:15.101Z,22.68
2017-04-27T00:10:14.725Z,22.55
2017-04-27T00:11:14.658Z,22.62
2017-04-27T00:12:14.909Z,22.65
2017-04-27T00:13:14.843Z,22.6
2017-04-27T00:14:14.842Z,22.55
2017-04-27T00:15:14.407Z,22.55
2017-04-27T00:16:14.655Z,22.55
2017-04-27T00:17:14.591Z,22.62
2017-04-27T00:18:14.212Z,22.6
2017-04-27T00:19:14.152Z,22.59
2017-04-27T00:20:14.406Z,22.62
2017-04-27T00:21:14.028Z,22.65
2017-04-27T00:22:13.962Z,22.62
2017-04-27T00:23:14.212Z,22.62
2017-04-27T00:24:14.145Z,22.54
2017-04-27T00:25:14.087Z,22.51
2017-04-27T00:26:14.022Z,22.62
2017-04-27T00:27:13.648Z,22.55
2017-04-27T00:28:13.588Z,22.54
2017-04-27T00:29:13.587Z,22.6
2017-04-27T00:30:13.767Z,22.68
2017-04-27T00:31:14.077Z,22.59
2017-04-27T00:32:13.646Z,22.57
2017-04-27T00:33:13.276Z,22.57
2017-04-27T00:34:13.517Z,22.54
2017-04-27T00:35:13.460Z,22.65
2017-04-27T00:36:13.402Z,22.59
2017-04-27T00:37:13.330Z,22.59
2017-04-27T00:38:12.956Z,22.59
2017-04-27T00:39:13.202Z,22.51
2017-04-27T00:40:12.832Z,22.6
2017-04-27T00:41:13.078Z,22.57
2017-04-27T00:42:12.706Z,22.57
2017-04-27T00:43:12.955Z,22.62
2017-04-27T00:44:12.585Z,22.57
2017-04-27T00:45:12.828Z,22.57
2017-04-27T00:46:13.147Z,22.6
2017-04-27T00:47:12.392Z,22.62
2017-04-27T00:48:12.647Z,22.55
2017-04-27T00:49:12.261Z,22.62
2017-04-27T00:50:12.523Z,22.57
2017-04-27T00:51:12.449Z,22.59
2017-04-27T00:52:12.071Z,22.59
2017-04-27T00:53:12.323Z,22.54
2017-04-27T00:54:12.267Z,22.6
2017-04-27T00:55:12.197Z,22.55
2017-04-27T00:56:12.136Z,22.57
2017-04-27T00:57:12.070Z,22.57
2017-04-27T00:58:12.019Z,22.6
2017-04-27T00:59:11.945Z,22.57
2017-04-27T01:00:11.576Z,22.6
2017-04-27T01:01:11.821Z,22.6
2017-04-27T01:02:11.762Z,22.57
2017-04-27T01:03:11.693Z,22.55
2017-04-27T01:04:11.629Z,22.57
2017-04-27T01:05:11.580Z,22.54
2017-04-27T01:06:11.203Z,22.57
2017-04-27T01:07:11.442Z,22.54
2017-04-27T01:08:11.379Z,22.51
2017-04-27T01:09:11.319Z,22.53
2017-04-27T01:10:10.946Z,22.54
2017-04-27T01:11:11.189Z,22.63
2017-04-27T01:12:10.819Z,22.6
2017-04-27T01:13:11.320Z,22.54
2017-04-27T01:14:11.002Z,22.59
2017-04-27T01:15:10.943Z,22.59
2017-04-27T01:16:10.876Z,22.54
2017-04-27T01:17:10.809Z,22.55
2017-04-27T01:18:10.762Z,22.51
2017-04-27T01:19:10.687Z,22.55
2017-04-27T01:20:10.310Z,22.6
2017-04-27T01:21:10.557Z,22.54
2017-04-27T01:22:10.491Z,22.54
2017-04-27T01:23:10.435Z,22.53
2017-04-27T01:24:10.074Z,22.54
2017-04-27T01:25:10.307Z,22.54
2017-04-27T01:26:10.244Z,22.57
2017-04-27T01:27:09.877Z,22.6
2017-04-27T01:28:09.810Z,22.5
2017-04-27T01:29:10.066Z,22.53
2017-04-27T01:30:09.987Z,22.53
2017-04-27T01:31:09.929Z,22.62
2017-04-27T01:32:09.860Z,22.53
2017-04-27T01:33:10.407Z,22.59
2017-04-27T01:34:09.746Z,22.59
2017-04-27T01:35:09.679Z,22.45
2017-04-27T01:36:09.618Z,22.53
2017-04-27T01:37:09.550Z,22.53
2017-04-27T01:38:09.490Z,22.48
2017-04-27T01:39:09.421Z,22.59
2017-04-27T01:40:09.049Z,22.53
2017-04-27T01:41:09.297Z,22.53
2017-04-27T01:42:09.235Z,22.57
2017-04-27T01:43:09.175Z,22.47
2017-04-27T01:44:09.106Z,22.55
2017-04-27T01:45:09.044Z,22.45
2017-04-27T01:46:08.982Z,22.48
2017-04-27T01:47:08.919Z,22.59
2017-04-27T01:48:08.889Z,22.53
2017-04-27T01:49:08.792Z,22.53
2017-04-27T01:50:08.726Z,22.45
2017-04-27T01:51:08.665Z,22.45
2017-04-27T01:52:08.289Z,22.51
2017-04-27T01:53:08.551Z,22.48
2017-04-27T01:54:08.485Z,22.51
2017-04-27T01:55:08.106Z,22.57
2017-04-27T01:56:08.351Z,22.48
2017-04-27T01:57:08.290Z,22.48
2017-04-27T01:58:08.597Z,22.48
2017-04-27T01:59:08.161Z,22.47
2017-04-27T02:00:07.786Z,22.53
2017-04-27T02:01:08.064Z,22.5
2017-04-27T02:02:07.661Z,22.54
2017-04-27T02:03:07.908Z,22.5
2017-04-27T02:04:07.847Z,22.44
2017-04-27T02:05:07.472Z,22.45
2017-04-27T02:06:07.411Z,22.48
2017-04-27T02:07:07.658Z,22.47
2017-04-27T02:08:07.598Z,22.44
2017-04-27T02:09:07.530Z,22.48
2017-04-27T02:10:07.469Z,22.5
2017-04-27T02:11:07.405Z,22.45
2017-04-27T02:12:07.375Z,22.48
2017-04-27T02:13:07.283Z,22.48
2017-04-27T02:14:06.905Z,22.51
2017-04-27T02:15:06.843Z,22.48
2017-04-27T02:16:07.087Z,22.47
2017-04-27T02:17:07.038Z,22.5
2017-04-27T02:18:06.967Z,22.5
2017-04-27T02:19:06.900Z,22.48
2017-04-27T02:20:06.837Z,22.5
2017-04-27T02:21:06.770Z,22.44
2017-04-27T02:22:06.711Z,22.47
2017-04-27T02:23:06.648Z,22.44
2017-04-27T02:24:06.583Z,22.45
2017-04-27T02:25:06.530Z,22.43
2017-04-27T02:26:06.460Z,22.47
2017-04-27T02:27:06.400Z,22.45
2017-04-27T02:28:06.344Z,22.48
2017-04-27T02:29:05.960Z,22.45
2017-04-27T02:30:06.208Z,22.45
2017-04-27T02:31:06.142Z,22.5
2017-04-27T02:32:06.080Z,22.5
2017-04-27T02:33:06.022Z,22.45
2017-04-27T02:34:05.956Z,22.45
2017-04-27T02:35:06.038Z,22.45
2017-04-27T02:36:05.833Z,22.45
2017-04-27T02:37:05.763Z,22.45
2017-04-27T02:38:05.734Z,22.43
2017-04-27T02:39:05.639Z,22.43
2017-04-27T02:40:05.575Z,22.48
2017-04-27T02:41:05.508Z,22.45
2017-04-27T02:42:05.448Z,22.45
2017-04-27T02:43:05.078Z,22.44
2017-04-27T02:44:05.321Z,22.44
2017-04-27T02:45:05.260Z,22.43
2017-04-27T02:46:05.197Z,22.44
2017-04-27T02:47:05.135Z,22.36
2017-04-27T02:48:05.069Z,22.45
2017-04-27T02:49:05.007Z,22.5
2017-04-27T02:50:04.946Z,22.41
2017-04-27T02:51:04.882Z,22.43
2017-04-27T02:52:04.821Z,22.51
2017-04-27T02:53:04.758Z,22.41
2017-04-27T02:54:04.695Z,22.36
2017-04-27T02:55:04.627Z,22.47
2017-04-27T02:56:04.562Z,22.43
2017-04-27T02:57:04.497Z,22.48
2017-04-27T02:58:04.435Z,22.43
2017-04-27T02:59:04.069Z,22.45
2017-04-27T03:00:04.001Z,22.41
2017-04-27T03:01:04.253Z,22.5
2017-04-27T03:02:04.191Z,22.5
2017-04-27T03:03:04.125Z,22.47
2017-04-27T03:04:04.070Z,22.51
2017-04-27T03:05:04.002Z,22.53
2017-04-27T03:06:03.937Z,22.44
2017-04-27T03:07:03.876Z,22.45
2017-04-27T03:08:03.809Z,22.5
2017-04-27T03:09:03.748Z,22.48
2017-04-27T03:10:04.061Z,22.44
2017-04-27T03:11:03.618Z,22.5
2017-04-27T03:12:03.557Z,22.43
2017-04-27T03:13:03.495Z,22.47
2017-04-27T03:14:03.433Z,22.43
2017-04-27T03:15:03.365Z,22.33
2017-04-27T03:16:03.302Z,22.41
2017-04-27T03:17:03.250Z,22.45
2017-04-27T03:18:03.550Z,22.45
2017-04-27T03:19:03.122Z,22.41
2017-04-27T03:20:03.050Z,22.41
2017-04-27T03:21:02.991Z,22.47
2017-04-27T03:22:02.923Z,22.45
2017-04-27T03:23:02.861Z,22.41
2017-04-27T03:24:03.168Z,22.41
2017-04-27T03:25:02.737Z,22.44
2017-04-27T03:26:02.676Z,22.51
2017-04-27T03:27:02.301Z,22.44
2017-04-27T03:28:02.548Z,22.45
2017-04-27T03:29:02.485Z,22.41
2017-04-27T03:30:02.425Z,22.47
2017-04-27T03:31:02.362Z,22.41
2017-04-27T03:32:02.297Z,22.35
2017-04-27T03:33:02.233Z,22.43
2017-04-27T03:34:01.862Z,22.47
2017-04-27T03:35:02.110Z,22.43
2017-04-27T03:36:01.736Z,22.41
2017-04-27T03:37:01.669Z,22.39
2017-04-27T03:38:01.927Z,22.48
2017-04-27T03:39:01.854Z,22.39
2017-04-27T03:40:01.795Z,22.43
2017-04-27T03:41:01.724Z,22.43
2017-04-27T03:42:01.664Z,22.43
2017-04-27T03:43:01.599Z,22.44
2017-04-27T03:44:01.533Z,22.41
2017-04-27T03:45:01.471Z,22.41
2017-04-27T03:46:01.411Z,22.39
2017-04-27T03:47:01.359Z,22.48
2017-04-27T03:48:01.288Z,22.43
2017-04-27T03:49:01.223Z,22.44
2017-04-27T03:50:01.172Z,22.39
2017-04-27T03:51:01.096Z,22.48
2017-04-27T03:52:01.030Z,22.38
2017-04-27T03:53:00.663Z,22.39
2017-04-27T03:54:00.905Z,22.39
2017-04-27T03:55:00.844Z,22.39
2017-04-27T03:56:00.779Z,22.36
2017-04-27T03:57:01.089Z,22.48
2017-04-27T03:58:00.653Z,22.39
2017-04-27T03:59:00.592Z,22.41
2017-04-27T04:00:00.529Z,22.38
2017-04-27T04:01:00.463Z,22.45
2017-04-27T04:02:00.400Z,22.41
2017-04-27T04:03:00.341Z,22.38
2017-04-27T04:04:00.273Z,22.39
2017-04-27T04:05:00.215Z,22.38
2017-04-27T04:06:00.146Z,22.41
2017-04-27T04:07:00.084Z,22.36
2017-04-27T04:08:00.032Z,22.39
2017-04-27T04:08:59.964Z,22.36
2017-04-27T04:09:59.900Z,22.45
2017-04-27T04:10:59.829Z,22.36
2017-04-27T04:11:59.772Z,22.41
2017-04-27T04:12:59.708Z,22.41
2017-04-27T04:13:59.648Z,22.33
2017-04-27T04:14:59.580Z,22.44
2017-04-27T04:15:59.514Z,22.44
2017-04-27T04:16:59.450Z,22.36
2017-04-27T04:17:59.394Z,22.36
2017-04-27T04:18:59.334Z,22.36
2017-04-27T04:19:59.263Z,22.38
2017-04-27T04:20:59.196Z,22.41
2017-04-27T04:21:59.135Z,22.38
2017-04-27T04:22:59.077Z,22.36
2017-04-27T04:23:59.012Z,22.38
2017-04-27T04:24:58.952Z,22.39
2017-04-27T04:25:58.882Z,22.44
2017-04-27T04:26:58.851Z,22.43
2017-04-27T04:27:58.758Z,22.41
2017-04-27T04:28:58.696Z,22.35
2017-04-27T04:29:58.633Z,22.35
2017-04-27T04:30:58.578Z,22.39
2017-04-27T04:31:58.503Z,22.39
2017-04-27T04:32:58.141Z,22.45
2017-04-27T04:33:58.378Z,22.36
2017-04-27T04:34:58.314Z,22.38
2017-04-27T04:35:58.254Z,22.36
2017-04-27T04:36:58.189Z,22.35
2017-04-27T04:37:58.500Z,22.39
2017-04-27T04:38:58.066Z,22.41
2017-04-27T04:39:58.005Z,22.38
2017-04-27T04:40:57.945Z,22.32
2017-04-27T04:41:57.560Z,22.39
2017-04-27T04:42:57.811Z,22.38
2017-04-27T04:43:57.755Z,22.33
2017-04-27T04:44:57.683Z,22.33
2017-04-27T04:45:57.625Z,22.33
2017-04-27T04:46:57.571Z,22.33
2017-04-27T04:47:57.508Z,22.3
2017-04-27T04:48:57.431Z,22.38
2017-04-27T04:49:57.371Z,22.38
2017-04-27T04:50:57.305Z,22.38
2017-04-27T04:51:57.243Z,22.33
2017-04-27T04:52:57.184Z,22.38
2017-04-27T04:53:57.117Z,22.39
2017-04-27T04:54:57.056Z,22.39
2017-04-27T04:55:56.988Z,22.32
2017-04-27T04:56:56.926Z,22.36
2017-04-27T04:57:56.860Z,22.32
2017-04-27T04:58:56.804Z,22.43
2017-04-27T04:59:56.740Z,22.33
2017-04-27T05:00:56.676Z,22.36
2017-04-27T05:01:56.608Z,22.36
2017-04-27T05:02:56.549Z,22.33
2017-04-27T05:03:56.490Z,22.35
2017-04-27T05:04:56.420Z,22.41
2017-04-27T05:05:56.362Z,22.41
2017-04-27T05:06:56.292Z,22.38
2017-04-27T05:07:56.231Z,22.41
2017-04-27T05:08:56.168Z,22.36
2017-04-27T05:09:56.113Z,22.43
2017-04-27T05:10:56.188Z,22.33
2017-04-27T05:11:55.973Z,22.33
2017-04-27T05:12:55.914Z,22.23
2017-04-27T05:13:55.880Z,22.41
2017-04-27T05:14:55.786Z,22.38
2017-04-27T05:15:55.721Z,22.33
2017-04-27T05:16:55.351Z,22.35
2017-04-27T05:17:55.598Z,22.35
2017-04-27T05:18:55.533Z,22.44
2017-04-27T05:19:55.472Z,22.38
2017-04-27T05:20:55.407Z,22.33
2017-04-27T05:21:55.349Z,22.3
2017-04-27T05:22:55.277Z,22.23
2017-04-27T05:23:55.217Z,22.36
2017-04-27T05:24:55.155Z,22.32
2017-04-27T05:25:55.088Z,22.28
2017-04-27T05:26:55.025Z,22.32
2017-04-27T05:27:54.963Z,22.38
2017-04-27T05:28:54.898Z,22.39
2017-04-27T05:29:54.838Z,22.38
2017-04-27T05:30:54.776Z,22.35
2017-04-27T05:31:54.712Z,22.35
2017-04-27T05:32:54.652Z,22.29
2017-04-27T05:33:54.596Z,22.25
2017-04-27T05:34:54.526Z,22.32
2017-04-27T05:35:54.457Z,22.36
2017-04-27T05:36:54.394Z,22.25
2017-04-27T05:37:54.700Z,22.35
2017-04-27T05:38:54.643Z,22.22
2017-04-27T05:39:54.204Z,22.32
2017-04-27T05:40:54.139Z,22.25
2017-04-27T05:41:54.076Z,22.33
2017-04-27T05:42:54.015Z,22.35
2017-04-27T05:43:53.951Z,22.22
2017-04-27T05:44:53.885Z,22.28
2017-04-27T05:45:53.823Z,22.28
2017-04-27T05:46:53.763Z,22.29
2017-04-27T05:47:53.701Z,22.25
2017-04-27T05:48:54.006Z,22.28
2017-04-27T05:49:53.582Z,22.28
2017-04-27T05:50:53.199Z,22.22
2017-04-27T05:51:53.446Z,22.22
2017-04-27T05:52:53.386Z,22.29
2017-04-27T05:53:53.344Z,22.22
2017-04-27T05:54:53.257Z,22.32
2017-04-27T05:55:53.193Z,22.26
2017-04-27T05:56:53.130Z,22.23
2017-04-27T05:57:53.070Z,22.25
2017-04-27T05:58:53.003Z,22.23
2017-04-27T05:59:52.938Z,22.23
2017-04-27T06:00:52.875Z,22.26
2017-04-27T06:01:52.811Z,22.26
2017-04-27T06:02:52.750Z,22.26
2017-04-27T06:03:52.689Z,22.23
2017-04-27T06:04:52.625Z,22.23
2017-04-27T06:05:52.563Z,22.26
2017-04-27T06:06:52.501Z,22.23
2017-04-27T06:07:52.436Z,22.22
2017-04-27T06:08:52.370Z,22.28
2017-04-27T06:09:52.309Z,22.35
2017-04-27T06:10:52.247Z,22.38
2017-04-27T06:11:52.180Z,22.3
2017-04-27T06:12:52.120Z,22.23
2017-04-27T06:13:52.059Z,22.32
2017-04-27T06:14:51.994Z,22.26
2017-04-27T06:15:51.927Z,22.3
2017-04-27T06:16:51.864Z,22.35
2017-04-27T06:17:51.799Z,22.26
2017-04-27T06:18:51.736Z,22.22
2017-04-27T06:19:51.674Z,22.3
2017-04-27T06:20:51.303Z,22.23
2017-04-27T06:21:51.237Z,22.25
2017-04-27T06:22:51.489Z,22.25
2017-04-27T06:23:51.419Z,22.36
2017-04-27T06:24:51.359Z,22.25
2017-04-27T06:25:51.294Z,22.3
2017-04-27T06:26:51.227Z,22.2
2017-04-27T06:27:51.172Z,22.23
2017-04-27T06:28:51.104Z,22.2
2017-04-27T06:29:51.038Z,22.22
2017-04-27T06:30:50.976Z,22.23
2017-04-27T06:31:50.913Z,22.22
2017-04-27T06:32:51.130Z,22.25
2017-04-27T06:33:51.019Z,22.32
2017-04-27T06:34:50.585Z,22.3
2017-04-27T06:35:50.804Z,22.25
2017-04-27T06:36:50.600Z,22.22
2017-04-27T06:37:50.532Z,22.22
2017-04-27T06:38:50.470Z,22.26
2017-04-27T06:39:50.407Z,22.23
2017-04-27T06:40:50.349Z,22.25
2017-04-27T06:41:50.279Z,22.22
2017-04-27T06:42:50.215Z,22.22
2017-04-27T06:43:50.152Z,22.22
2017-04-27T06:44:50.095Z,22.28
2017-04-27T06:45:50.028Z,22.23
2017-04-27T06:46:49.968Z,22.25
2017-04-27T06:47:49.595Z,22.26
2017-04-27T06:48:49.839Z,22.36
2017-04-27T06:49:49.781Z,22.35
2017-04-27T06:50:49.710Z,22.28
2017-04-27T06:51:49.649Z,22.29
2017-04-27T06:52:49.588Z,22.35
2017-04-27T06:53:49.526Z,22.39
2017-04-27T06:54:49.456Z,22.32
2017-04-27T06:55:49.394Z,22.28
2017-04-27T06:56:49.534Z,22.32
2017-04-27T06:57:49.270Z,22.26
2017-04-27T06:58:48.903Z,22.32
2017-04-27T06:59:49.141Z,22.26
2017-04-27T07:00:49.078Z,22.22
2017-04-27T07:01:49.011Z,22.33
2017-04-27T07:02:48.950Z,22.26
2017-04-27T07:03:48.890Z,22.32
2017-04-27T07:04:48.828Z,22.35
2017-04-27T07:05:48.678Z,22.35
2017-04-27T07:06:48.391Z,22.36
2017-04-27T07:07:48.676Z,22.32
2017-04-27T07:08:48.581Z,22.26
2017-04-27T07:09:48.634Z,22.29
2017-04-27T07:10:48.669Z,22.25
2017-04-27T07:11:48.631Z,22.33
2017-04-27T07:12:48.337Z,22.35
2017-04-27T07:13:48.851Z,22.26
2017-04-27T07:14:48.406Z,22.35
2017-04-27T07:16:02.707Z,22.23
2017-04-27T07:16:47.768Z,22.33
2017-04-27T07:17:48.214Z,22.23
2017-04-27T07:18:47.945Z,22.35
2017-04-27T07:19:47.874Z,22.35
2017-04-27T07:20:47.810Z,22.25
2017-04-27T07:21:47.754Z,22.36
2017-04-27T07:22:47.687Z,22.32
2017-04-27T07:23:47.620Z,22.35
2017-04-27T07:24:47.561Z,22.28
2017-04-27T07:25:47.501Z,22.35
2017-04-27T07:26:47.436Z,22.26
2017-04-27T07:27:47.379Z,22.35
2017-04-27T07:28:46.998Z,22.29
2017-04-27T07:29:47.247Z,22.35
2017-04-27T07:30:47.183Z,22.36
2017-04-27T07:31:47.142Z,22.23
2017-04-27T07:32:47.058Z,22.33
2017-04-27T07:33:47.008Z,22.35
2017-04-27T07:34:46.930Z,22.35
2017-04-27T07:35:46.871Z,22.35
2017-04-27T07:36:46.804Z,22.35
2017-04-27T07:37:46.741Z,22.36
2017-04-27T07:38:46.698Z,22.36
2017-04-27T07:39:46.612Z,22.35
2017-04-27T07:40:46.550Z,22.35
2017-04-27T07:41:46.481Z,22.32
2017-04-27T07:42:46.424Z,22.32
2017-04-27T07:43:46.365Z,22.35
2017-04-27T07:44:46.295Z,22.38
2017-04-27T07:45:46.231Z,22.32
2017-04-27T07:46:45.866Z,22.36
2017-04-27T07:47:46.112Z,22.33
2017-04-27T07:48:46.036Z,22.33
2017-04-27T07:49:45.979Z,22.35
2017-04-27T07:50:46.019Z,22.39
2017-04-27T07:51:45.850Z,22.33
2017-04-27T07:52:45.823Z,22.33
2017-04-27T07:53:45.724Z,22.33
2017-04-27T07:54:45.727Z,22.36
2017-04-27T07:55:45.921Z,22.35
2017-04-27T07:56:45.589Z,22.3
2017-04-27T07:57:45.157Z,22.35
2017-04-27T07:58:45.409Z,22.35
2017-04-27T07:59:45.343Z,22.41
2017-04-27T08:00:45.283Z,22.38
2017-04-27T08:01:45.220Z,22.32
2017-04-27T08:02:45.193Z,22.41
2017-04-27T08:03:45.103Z,22.33
2017-04-27T08:04:44.444Z,22.39
2017-04-27T08:05:44.969Z,22.32
2017-04-27T08:06:44.900Z,22.36
2017-04-27T08:07:44.858Z,22.36
2017-04-27T08:08:44.782Z,22.43
2017-04-27T08:09:44.710Z,22.32
2017-04-27T08:10:44.336Z,22.47
2017-04-27T08:11:44.606Z,22.36
2017-04-27T08:12:44.528Z,22.39
2017-04-27T08:13:44.474Z,22.36
2017-04-27T08:14:44.395Z,22.38
2017-04-27T08:15:44.229Z,22.36
2017-04-27T08:16:44.297Z,22.32
2017-04-27T08:17:44.217Z,22.36
2017-04-27T08:18:44.139Z,22.41
2017-04-27T08:19:44.303Z,22.38
2017-04-27T08:20:44.076Z,22.36
2017-04-27T08:21:43.953Z,22.38
2017-04-27T08:22:43.887Z,22.36
2017-04-27T08:23:43.829Z,22.38
2017-04-27T08:24:43.473Z,22.38
2017-04-27T08:25:43.699Z,22.36
2017-04-27T08:26:43.636Z,22.39
2017-04-27T08:27:43.571Z,22.35
2017-04-27T08:28:43.562Z,22.32
2017-04-27T08:29:43.682Z,22.33
2017-04-27T08:30:43.389Z,22.33
2017-04-27T08:31:43.321Z,22.39
2017-04-27T08:32:43.262Z,22.36
2017-04-27T08:33:42.642Z,22.32
2017-04-27T08:34:43.166Z,22.41
2017-04-27T08:35:43.067Z,22.39
2017-04-27T08:36:42.697Z,22.33
2017-04-27T08:37:42.943Z,22.39
2017-04-27T08:38:42.883Z,22.35
2017-04-27T08:39:42.514Z,22.33
2017-04-27T08:40:42.452Z,22.39
2017-04-27T08:41:42.375Z,22.3
2017-04-27T08:42:42.624Z,22.39
2017-04-27T08:43:42.563Z,22.33
2017-04-27T08:44:42.522Z,22.36
2017-04-27T08:45:42.467Z,22.39
2017-04-27T08:46:42.373Z,22.39
2017-04-27T08:47:41.689Z,22.44
2017-04-27T08:48:42.242Z,22.39
2017-04-27T08:49:42.195Z,22.33
2017-04-27T08:50:42.147Z,22.43
2017-04-27T08:51:42.058Z,22.32
2017-04-27T08:52:42.004Z,22.33
2017-04-27T08:53:41.929Z,22.38
2017-04-27T08:54:41.865Z,22.39
2017-04-27T08:55:41.804Z,22.38
2017-04-27T08:56:41.739Z,22.38
2017-04-27T08:57:41.686Z,22.35
2017-04-27T08:58:41.612Z,22.44
2017-04-27T08:59:41.553Z,22.35
2017-04-27T09:00:41.488Z,22.45
2017-04-27T09:01:41.421Z,22.41
2017-04-27T09:02:41.363Z,22.36
2017-04-27T09:03:41.297Z,22.44
2017-04-27T09:04:41.240Z,22.39
2017-04-27T09:05:41.172Z,22.33
2017-04-27T09:06:40.796Z,22.39
2017-04-27T09:07:40.737Z,22.41
2017-04-27T09:08:41.357Z,22.45
2017-04-27T09:09:40.916Z,22.39
2017-04-27T09:10:41.003Z,22.41
2017-04-27T09:11:40.789Z,22.45
2017-04-27T09:12:40.728Z,22.44
2017-04-27T09:13:40.366Z,22.43
2017-04-27T09:14:40.300Z,22.47
2017-04-27T09:15:40.638Z,22.44
2017-04-27T09:16:40.195Z,22.47
2017-04-27T09:17:40.414Z,22.39
2017-04-27T09:18:40.352Z,22.48
2017-04-27T09:19:40.288Z,22.43
2017-04-27T09:20:39.911Z,22.35
2017-04-27T09:21:40.158Z,22.41
2017-04-27T09:22:40.098Z,22.44
2017-04-27T09:23:39.414Z,22.43
2017-04-27T09:24:39.968Z,22.44
2017-04-27T09:25:39.907Z,22.44
2017-04-27T09:26:39.541Z,22.43
2017-04-27T09:27:39.467Z,22.53
2017-04-27T09:28:39.722Z,22.44
2017-04-27T09:29:39.654Z,22.47
2017-04-27T09:30:39.595Z,22.43
2017-04-27T09:31:39.530Z,22.45
2017-04-27T09:32:39.465Z,22.48
2017-04-27T09:33:39.399Z,22.43
2017-04-27T09:34:39.028Z,22.48
2017-04-27T09:35:39.429Z,22.44
2017-04-27T09:36:39.471Z,22.45
2017-04-27T09:37:39.182Z,22.45
2017-04-27T09:38:38.791Z,22.45
2017-04-27T09:39:39.082Z,22.45
2017-04-27T09:40:39.345Z,22.44
2017-04-27T09:41:38.899Z,22.47
2017-04-27T09:42:38.867Z,22.47
2017-04-27T09:43:38.771Z,22.55
2017-04-27T09:44:38.708Z,22.53
2017-04-27T09:45:38.651Z,22.48
2017-04-27T09:46:38.579Z,22.5
2017-04-27T09:47:38.518Z,22.48
2017-04-27T09:48:38.459Z,22.55
2017-04-27T09:49:38.083Z,22.47
2017-04-27T09:50:38.332Z,22.6
2017-04-27T09:51:38.266Z,22.47
2017-04-27T09:52:38.205Z,22.59
2017-04-27T09:53:38.643Z,22.62
2017-04-27T09:54:38.084Z,22.54
2017-04-27T09:55:38.034Z,22.59
2017-04-27T09:56:37.994Z,22.53
2017-04-27T09:57:37.896Z,22.57
2017-04-27T09:58:37.838Z,22.6
2017-04-27T09:59:37.451Z,22.59
2017-04-27T10:00:37.711Z,22.55
2017-04-27T10:01:37.638Z,22.59
2017-04-27T10:02:37.573Z,22.59
2017-04-27T10:03:37.518Z,22.59
2017-04-27T10:04:37.451Z,22.63
2017-04-27T10:05:37.393Z,22.57
2017-04-27T10:06:37.322Z,22.62
2017-04-27T10:07:37.255Z,22.59
2017-04-27T10:08:37.192Z,22.55
2017-04-27T10:09:37.132Z,22.59
2017-04-27T10:10:37.069Z,22.57
2017-04-27T10:11:37.006Z,22.65
2017-04-27T10:12:36.629Z,22.48
2017-04-27T10:13:36.886Z,22.6
2017-04-27T10:14:36.812Z,22.6
2017-04-27T10:15:36.440Z,22.62
2017-04-27T10:16:36.697Z,22.57
2017-04-27T10:17:36.629Z,22.62
2017-04-27T10:18:36.561Z,22.6
2017-04-27T10:19:36.498Z,22.57
2017-04-27T10:20:36.812Z,22.59
2017-04-27T10:21:36.079Z,22.6
2017-04-27T10:22:36.320Z,22.59
2017-04-27T10:23:36.251Z,22.54
2017-04-27T10:24:36.190Z,22.54
2017-04-27T10:25:36.123Z,22.62
2017-04-27T10:26:36.462Z,22.68
2017-04-27T10:27:35.996Z,22.65
2017-04-27T10:28:35.935Z,22.62
2017-04-27T10:29:35.871Z,22.55
2017-04-27T10:30:35.600Z,22.62
2017-04-27T10:31:35.750Z,22.6
2017-04-27T10:32:35.117Z,22.62
2017-04-27T10:33:35.311Z,22.68
2017-04-27T10:34:35.559Z,22.66
2017-04-27T10:35:35.643Z,22.7
2017-04-27T10:36:35.436Z,22.72
2017-04-27T10:37:35.367Z,22.69
2017-04-27T10:38:35.309Z,22.68
2017-04-27T10:39:34.930Z,22.72
2017-04-27T10:40:35.179Z,22.7
2017-04-27T10:41:35.117Z,22.7
2017-04-27T10:42:35.063Z,22.7
2017-04-27T10:43:34.988Z,22.72
2017-04-27T10:44:34.929Z,22.73
2017-04-27T10:45:35.240Z,22.7
2017-04-27T10:46:34.801Z,22.78
2017-04-27T10:47:34.427Z,22.83
2017-04-27T10:48:34.678Z,22.76
2017-04-27T10:49:34.611Z,22.78
2017-04-27T10:50:34.550Z,22.78
2017-04-27T10:51:34.486Z,22.72
2017-04-27T10:52:34.112Z,22.78
2017-04-27T10:53:34.361Z,22.75
2017-04-27T10:54:34.304Z,22.72
2017-04-27T10:55:34.234Z,22.8
2017-04-27T10:56:34.181Z,22.75
2017-04-27T10:57:34.109Z,22.75
2017-04-27T10:58:34.050Z,22.72
2017-04-27T10:59:33.982Z,22.75
2017-04-27T11:00:34.004Z,22.73
2017-04-27T11:01:33.858Z,22.78
2017-04-27T11:02:33.796Z,22.85
2017-04-27T11:03:33.733Z,22.75
2017-04-27T11:04:33.666Z,22.73
2017-04-27T11:05:33.755Z,22.75
2017-04-27T11:06:33.543Z,22.8
2017-04-27T11:07:33.481Z,22.83
2017-04-27T11:08:33.418Z,22.76
2017-04-27T11:09:33.353Z,22.75
2017-04-27T11:10:33.543Z,22.84
2017-04-27T11:11:33.234Z,22.73
2017-04-27T11:12:32.866Z,22.78
2017-04-27T11:13:33.113Z,22.73
2017-04-27T11:14:33.045Z,22.72
2017-04-27T11:15:32.988Z,22.76
2017-04-27T11:16:32.916Z,22.83
2017-04-27T11:17:32.852Z,22.84
2017-04-27T11:18:32.998Z,22.83
2017-04-27T11:19:32.727Z,22.84
2017-04-27T11:20:32.669Z,22.78
2017-04-27T11:21:32.608Z,22.84
2017-04-27T11:22:32.231Z,22.73
2017-04-27T11:23:34.280Z,22.72
2017-04-27T11:24:32.423Z,22.75
2017-04-27T11:25:32.551Z,22.83
2017-04-27T11:26:32.298Z,22.84
2017-04-27T11:27:32.234Z,22.8
2017-04-27T11:28:32.174Z,22.75
2017-04-27T11:29:32.333Z,22.81
2017-04-27T11:30:32.283Z,22.73
2017-04-27T11:31:32.175Z,22.84
2017-04-27T11:32:31.910Z,22.75
2017-04-27T11:33:31.854Z,22.81
2017-04-27T11:34:31.987Z,22.85
2017-04-27T11:35:31.720Z,22.81
2017-04-27T11:36:31.869Z,22.8
2017-04-27T11:37:31.809Z,22.84
2017-04-27T11:39:06.288Z,22.8
2017-04-27T11:39:31.674Z,22.78
2017-04-27T11:40:31.859Z,22.78
2017-04-27T11:41:31.553Z,22.75
2017-04-27T11:42:31.277Z,22.76
2017-04-27T11:43:31.218Z,22.75
2017-04-27T11:44:31.168Z,22.75
2017-04-27T11:45:30.470Z,22.75
2017-04-27T11:46:30.731Z,22.76
2017-04-27T11:47:31.212Z,22.88
2017-04-27T11:48:30.925Z,22.75
2017-04-27T11:49:30.841Z,22.81
2017-04-27T11:50:30.783Z,22.75
2017-04-27T11:51:30.715Z,22.85
2017-04-27T11:52:30.651Z,22.81
2017-04-27T11:53:30.585Z,22.81
2017-04-27T11:54:30.528Z,22.9
2017-04-27T11:55:30.465Z,22.75
2017-04-27T11:56:30.396Z,22.8
2017-04-27T11:57:30.342Z,22.73
2017-04-27T11:58:30.281Z,22.75
2017-04-27T11:59:30.215Z,22.75
2017-04-27T12:00:29.847Z,22.83
2017-04-27T12:01:29.777Z,22.83
2017-04-27T12:02:30.031Z,22.87
2017-04-27T12:03:29.962Z,22.73
2017-04-27T12:04:29.590Z,22.78
2017-04-27T12:05:29.837Z,22.81
2017-04-27T12:06:29.771Z,22.8
2017-04-27T12:07:29.709Z,22.76
2017-04-27T12:08:29.655Z,22.83
2017-04-27T12:09:29.610Z,22.88
2017-04-27T12:10:29.533Z,22.84
2017-04-27T12:11:29.460Z,22.76
2017-04-27T12:12:29.395Z,22.83
2017-04-27T12:13:29.331Z,22.73
2017-04-27T12:14:29.269Z,22.84
2017-04-27T12:15:29.208Z,22.83
2017-04-27T12:16:28.838Z,22.78
2017-04-27T12:17:29.083Z,22.81
2017-04-27T12:18:29.021Z,22.85
2017-04-27T12:19:28.959Z,22.78
2017-04-27T12:20:29.246Z,22.8
2017-04-27T12:21:28.844Z,22.8
2017-04-27T12:22:28.766Z,22.8
2017-04-27T12:23:28.398Z,22.8
2017-04-27T12:24:28.656Z,22.81
2017-04-27T12:25:28.371Z,22.84
2017-04-27T12:26:28.522Z,22.85
2017-04-27T12:27:28.459Z,22.81
2017-04-27T12:28:28.392Z,22.8
2017-04-27T12:29:28.696Z,22.75
2017-04-27T12:30:28.564Z,22.8
2017-04-27T12:31:28.201Z,22.84
2017-04-27T12:32:28.146Z,22.76
2017-04-27T12:33:28.077Z,22.83
2017-04-27T12:34:28.017Z,22.8
2017-04-27T12:35:27.954Z,22.84
2017-04-27T12:36:27.580Z,22.81
2017-04-27T12:37:27.826Z,22.84
2017-04-27T12:38:27.481Z,22.8
2017-04-27T12:39:27.718Z,22.78
2017-04-27T12:40:28.238Z,22.83
2017-04-27T12:41:27.573Z,22.84
2017-04-27T12:42:27.205Z,22.73
2017-04-27T12:43:27.528Z,22.84
2017-04-27T12:44:27.759Z,22.84
2017-04-27T12:45:27.330Z,22.76
2017-04-27T12:46:27.258Z,22.76
2017-04-27T12:47:27.200Z,22.81
2017-04-27T12:48:27.134Z,22.81
2017-04-27T12:49:27.075Z,22.83
2017-04-27T12:50:27.379Z,22.85
2017-04-27T12:51:26.949Z,22.78
2017-04-27T12:52:26.885Z,22.84
2017-04-27T12:53:26.817Z,22.8
2017-04-27T12:54:26.759Z,22.8